createdAt,value
2023-11-29T00:00:46.028Z,100468.53
2023-11-29T00:03:12.490Z,100470.16
2023-11-29T00:05:44.127Z,100459.91
2023-11-29T00:08:12.527Z,100451.50
2023-11-29T00:10:38.968Z,100444.56
2023-11-29T00:13:05.454Z,100452.34
2023-11-29T00:15:31.839Z,100462.78
2023-11-29T00:17:58.324Z,100465.31
2023-11-29T00:20:24.786Z,100472.75
2023-11-29T00:22:51.184Z,100482.97
2023-11-29T00:25:18.094Z,100474.19
2023-11-29T00:27:44.552Z,100435.09
2023-11-29T00:30:11.575Z,100419.66
2023-11-29T00:32:37.984Z,100412.19
2023-11-29T00:35:04.845Z,100411.28
2023-11-29T00:37:31.313Z,100405.31
2023-11-29T00:39:57.807Z,100402.88
2023-11-29T00:42:24.237Z,100390.66
2023-11-29T00:44:53.310Z,100387.94
2023-11-29T00:47:20.348Z,100394.03
2023-11-29T00:49:46.827Z,100381.19
2023-11-29T00:52:13.315Z,100380.44
2023-11-29T00:54:39.773Z,100372.59
2023-11-29T00:57:06.269Z,100372.38
2023-11-29T00:59:32.894Z,100380.75
2023-11-29T01:01:59.728Z,100382.16
2023-11-29T01:04:26.156Z,100381.06
2023-11-29T01:06:52.585Z,100384.28
2023-11-29T01:09:19.139Z,100390.03
2023-11-29T01:11:45.587Z,100386.25
2023-11-29T01:14:12.171Z,100398.19
2023-11-29T01:16:38.603Z,100398.88
2023-11-29T01:19:05.487Z,100388.44
2023-11-29T01:21:37.624Z,100383.22
2023-11-29T01:24:04.497Z,100379.72
2023-11-29T01:26:31.010Z,100373.75
2023-11-29T01:28:57.426Z,100372.78
2023-11-29T01:31:27.579Z,100377.13
2023-11-29T01:33:55.427Z,100365.00
2023-11-29T01:36:22.277Z,100357.88
2023-11-29T01:38:48.810Z,100354.28
2023-11-29T01:41:15.394Z,100350.84
2023-11-29T01:43:41.841Z,100347.94
2023-11-29T01:46:08.494Z,100340.94
2023-11-29T01:48:35.163Z,100337.31
2023-11-29T01:51:01.761Z,100340.94
2023-11-29T01:53:30.833Z,100333.22
2023-11-29T01:55:59.046Z,100336.72
2023-11-29T01:58:27.615Z,100333.28
2023-11-29T02:00:54.998Z,100331.38
2023-11-29T02:03:22.063Z,100317.38
2023-11-29T02:05:48.950Z,100308.59
2023-11-29T02:08:15.788Z,100312.66
2023-11-29T02:10:42.265Z,100309.22
2023-11-29T02:13:08.844Z,100304.69
2023-11-29T02:15:35.224Z,100313.91
2023-11-29T02:18:01.948Z,100310.25
2023-11-29T02:20:28.504Z,100303.22
2023-11-29T02:23:07.622Z,100310.00
2023-11-29T02:25:34.022Z,100307.25
2023-11-29T02:28:01.443Z,100312.19
2023-11-29T02:30:28.068Z,100314.63
2023-11-29T02:32:54.639Z,100315.38
2023-11-29T02:35:21.296Z,100295.38
2023-11-29T02:37:47.794Z,100291.16
2023-11-29T02:40:14.559Z,100285.38
2023-11-29T02:42:41.036Z,100293.91
2023-11-29T02:45:08.077Z,100290.41
2023-11-29T02:47:34.716Z,100307.66
2023-11-29T02:50:01.340Z,100288.72
2023-11-29T02:52:27.773Z,100256.63
2023-11-29T02:54:54.598Z,100262.00
2023-11-29T02:57:20.995Z,100261.06
2023-11-29T02:59:47.988Z,100245.66
2023-11-29T03:02:15.605Z,100240.38
2023-11-29T03:04:42.191Z,100228.97
2023-11-29T03:07:08.594Z,100226.31
2023-11-29T03:09:35.026Z,100213.47
2023-11-29T03:12:01.698Z,100202.31
2023-11-29T03:14:28.225Z,100196.38
2023-11-29T03:16:55.722Z,100186.81
2023-11-29T03:19:22.190Z,100187.78
2023-11-29T03:21:48.606Z,100174.78
2023-11-29T03:24:15.089Z,100183.97
2023-11-29T03:26:44.918Z,100162.38
2023-11-29T03:29:11.509Z,100183.66
2023-11-29T03:31:38.016Z,100175.69
2023-11-29T03:34:04.475Z,100163.34
2023-11-29T03:36:30.837Z,100160.66
2023-11-29T03:38:57.269Z,100150.28
2023-11-29T03:41:23.730Z,100142.56
2023-11-29T03:43:50.136Z,100134.53
2023-11-29T03:46:16.524Z,100139.72
2023-11-29T03:48:42.935Z,100136.13
2023-11-29T03:51:09.302Z,100135.19
2023-11-29T03:53:35.738Z,100129.06
2023-11-29T03:56:02.206Z,100120.44
2023-11-29T03:58:28.632Z,100121.28
2023-11-29T04:00:55.072Z,100111.81
2023-11-29T04:03:21.599Z,100117.00
2023-11-29T04:05:48.080Z,100128.16
2023-11-29T04:08:14.608Z,100117.56
2023-11-29T04:10:41.125Z,100105.41
2023-11-29T04:13:07.532Z,100096.59
2023-11-29T04:15:33.906Z,100098.44
2023-11-29T04:18:00.355Z,100102.88
2023-11-29T04:20:26.920Z,100109.75
2023-11-29T04:22:53.304Z,100121.81
2023-11-29T04:25:20.375Z,100107.16
2023-11-29T04:27:46.869Z,100112.56
2023-11-29T04:30:13.520Z,100100.41
2023-11-29T04:32:40.158Z,100094.44
2023-11-29T04:35:06.883Z,100090.25
2023-11-29T04:37:33.304Z,100092.88
2023-11-29T04:39:59.673Z,100094.44
2023-11-29T04:42:26.135Z,100087.66
2023-11-29T04:44:52.615Z,100085.16
2023-11-29T04:47:19.696Z,100082.56
2023-11-29T04:49:46.197Z,100080.88
2023-11-29T04:52:12.762Z,100072.31
2023-11-29T04:54:39.178Z,100070.66
2023-11-29T04:57:05.562Z,100075.75
2023-11-29T04:59:32.303Z,100069.47
2023-11-29T05:01:59.542Z,100067.81
2023-11-29T05:04:26.170Z,100053.13
2023-11-29T05:06:52.632Z,100054.16
2023-11-29T05:09:19.104Z,100052.47
2023-11-29T05:11:46.251Z,100053.47
2023-11-29T05:14:14.953Z,100062.09
2023-11-29T05:16:42.766Z,100060.34
2023-11-29T05:19:09.377Z,100071.50
2023-11-29T05:21:36.585Z,100085.41
2023-11-29T05:24:04.223Z,100091.19
2023-11-29T05:26:30.952Z,100106.59
2023-11-29T05:28:57.406Z,100089.25
2023-11-29T05:31:24.053Z,100087.41
2023-11-29T05:33:50.922Z,100079.63
2023-11-29T05:36:20.354Z,100083.13
2023-11-29T05:38:47.059Z,100087.50
2023-11-29T05:41:14.517Z,100093.63
2023-11-29T05:43:41.488Z,100090.09
2023-11-29T05:46:07.944Z,100097.81
2023-11-29T05:48:34.423Z,100088.25
2023-11-29T05:51:01.767Z,100100.19
2023-11-29T05:53:28.445Z,100097.50
2023-11-29T05:55:55.020Z,100103.63
2023-11-29T05:58:21.460Z,100113.19
2023-11-29T06:00:47.968Z,100112.34
2023-11-29T06:03:14.505Z,100124.44
2023-11-29T06:05:41.026Z,100114.88
2023-11-29T06:08:07.770Z,100121.19
2023-11-29T06:10:34.246Z,100130.00
2023-11-29T06:13:00.789Z,100131.09
2023-11-29T06:15:30.182Z,100132.94
2023-11-29T06:17:56.744Z,100139.72
2023-11-29T06:20:23.851Z,100144.84
2023-11-29T06:22:51.135Z,100142.16
2023-11-29T06:25:17.630Z,100148.81
2023-11-29T06:27:45.972Z,100150.50
2023-11-29T06:30:13.050Z,100152.94
2023-11-29T06:32:42.501Z,100162.41
2023-11-29T06:35:13.258Z,100161.56
2023-11-29T06:37:40.104Z,100179.97
2023-11-29T06:40:11.909Z,100172.38
2023-11-29T06:42:40.914Z,100169.88
2023-11-29T06:45:08.114Z,100170.88
2023-11-29T06:47:35.228Z,100169.13
2023-11-29T06:50:02.052Z,100173.38
2023-11-29T06:52:28.426Z,100185.63
2023-11-29T06:54:54.909Z,100195.28
2023-11-29T06:57:21.287Z,100210.13
2023-11-29T06:59:47.822Z,100213.56
2023-11-29T07:02:14.317Z,100234.19
2023-11-29T07:04:44.640Z,100231.53
2023-11-29T07:07:12.167Z,100237.56
2023-11-29T07:09:38.743Z,100236.56
2023-11-29T07:12:09.566Z,100235.63
2023-11-29T07:14:36.401Z,100248.63
2023-11-29T07:17:03.005Z,100245.28
2023-11-29T07:19:29.416Z,100246.28
2023-11-29T07:21:55.935Z,100247.03
2023-11-29T07:24:22.365Z,100246.28
2023-11-29T07:26:49.892Z,100255.84
2023-11-29T07:29:16.369Z,100254.34
2023-11-29T07:31:42.767Z,100257.94
2023-11-29T07:34:09.248Z,100261.38
2023-11-29T07:36:35.665Z,100257.94
2023-11-29T07:39:02.186Z,100263.97
2023-11-29T07:41:28.871Z,100269.94
2023-11-29T07:43:55.837Z,100274.38
2023-11-29T07:46:22.330Z,100288.22
2023-11-29T07:48:48.948Z,100314.31
2023-11-29T07:51:15.483Z,100305.44
2023-11-29T07:53:43.124Z,100313.66
2023-11-29T07:56:10.577Z,100317.19
2023-11-29T07:58:37.528Z,100315.66
2023-11-29T08:01:04.108Z,100332.53
2023-11-29T08:03:30.553Z,100329.25
2023-11-29T08:05:57.043Z,100326.19
2023-11-29T08:08:23.476Z,100323.09
2023-11-29T08:10:49.994Z,100317.31
2023-11-29T08:13:16.402Z,100325.94
2023-11-29T08:15:45.462Z,100332.28
2023-11-29T08:18:12.243Z,100331.56
2023-11-29T08:20:38.833Z,100342.00
2023-11-29T08:23:05.400Z,100349.88
2023-11-29T08:25:31.995Z,100349.81
2023-11-29T08:27:58.673Z,100356.84
2023-11-29T08:30:25.393Z,100354.09
2023-11-29T08:32:52.144Z,100352.22
2023-11-29T08:35:18.668Z,100356.25
2023-11-29T08:37:45.136Z,100357.63
2023-11-29T08:40:12.135Z,100362.56
2023-11-29T08:42:40.493Z,100375.41
2023-11-29T08:45:07.982Z,100385.41
2023-11-29T08:47:34.538Z,100383.31
2023-11-29T08:50:01.092Z,100380.47
2023-11-29T08:52:27.584Z,100382.91
2023-11-29T08:54:54.768Z,100386.09
2023-11-29T08:57:25.281Z,100382.41
2023-11-29T08:59:52.492Z,100385.69
2023-11-29T09:02:24.078Z,100388.78
2023-11-29T09:04:51.397Z,100391.97
2023-11-29T09:07:18.795Z,100398.94
2023-11-29T09:09:45.378Z,100395.34
2023-11-29T09:12:12.906Z,100396.88
2023-11-29T09:14:39.926Z,100393.06
2023-11-29T09:17:06.794Z,100398.94
2023-11-29T09:19:33.632Z,100408.91
2023-11-29T09:22:00.480Z,100405.81
2023-11-29T09:24:27.183Z,100418.31
2023-11-29T09:26:55.728Z,100416.06
2023-11-29T09:29:23.395Z,100414.84
2023-11-29T09:31:49.943Z,100410.31
2023-11-29T09:34:16.361Z,100414.53
2023-11-29T09:36:42.807Z,100413.00
2023-11-29T09:39:14.060Z,100413.25
2023-11-29T09:41:40.771Z,100411.59
2023-11-29T09:44:07.575Z,100418.47
2023-11-29T09:46:34.812Z,100427.78
2023-11-29T09:49:02.593Z,100420.72
2023-11-29T09:51:29.260Z,100424.94
2023-11-29T09:53:58.013Z,100430.22
2023-11-29T09:56:24.852Z,100435.59
2023-11-29T09:58:51.534Z,100434.84
2023-11-29T10:01:17.956Z,100436.69
2023-11-29T10:04:00.511Z,100436.69
2023-11-29T10:06:27.087Z,100437.34
2023-11-29T10:08:53.532Z,100439.88
2023-11-29T10:11:20.429Z,100442.06
2023-11-29T10:13:48.540Z,100443.38
2023-11-29T10:16:18.112Z,100446.56
2023-11-29T10:18:47.344Z,100444.81
2023-11-29T10:21:14.295Z,100436.63
2023-11-29T10:23:40.883Z,100434.69
2023-11-29T10:26:09.294Z,100435.53
2023-11-29T10:28:37.225Z,100445.19
2023-11-29T10:31:06.107Z,100451.75
2023-11-29T10:33:33.271Z,100444.56
2023-11-29T10:36:02.502Z,100432.06
2023-11-29T10:38:38.668Z,100444.31
2023-11-29T10:41:06.173Z,100437.25
2023-11-29T10:43:35.642Z,100446.00
2023-11-29T10:46:32.283Z,100438.94
2023-11-29T10:49:12.612Z,100433.94
2023-11-29T10:51:40.402Z,100433.59
2023-11-29T10:54:08.451Z,100438.06
2023-11-29T10:56:36.106Z,100441.75
2023-11-29T10:59:10.621Z,100446.13
2023-11-29T11:01:38.416Z,100453.47
2023-11-29T11:04:10.158Z,100451.22
2023-11-29T11:06:41.034Z,100452.72
2023-11-29T11:09:29.685Z,100449.94
2023-11-29T11:11:56.197Z,100453.56
2023-11-29T11:14:24.196Z,100439.88
2023-11-29T11:17:01.527Z,100446.00
2023-11-29T11:19:35.970Z,100443.22
2023-11-29T11:22:22.734Z,100441.75
2023-11-29T11:25:14.089Z,100452.34
2023-11-29T11:27:42.711Z,100442.97
2023-11-29T11:30:15.106Z,100441.94
2023-11-29T11:32:41.762Z,100434.19
2023-11-29T11:35:17.405Z,100440.44
2023-11-29T11:37:55.137Z,100438.09
2023-11-29T11:40:24.190Z,100433.06
2023-11-29T11:42:52.581Z,100439.13
2023-11-29T11:45:19.600Z,100443.22
2023-11-29T11:47:46.435Z,100448.34
2023-11-29T11:50:14.039Z,100442.13
2023-11-29T11:52:40.963Z,100440.84
2023-11-29T11:55:09.619Z,100441.41
2023-11-29T11:57:37.324Z,100445.59
2023-11-29T12:00:08.101Z,100450.00
2023-11-29T12:02:35.826Z,100455.78
2023-11-29T12:05:06.692Z,100459.59
2023-11-29T12:07:38.025Z,100461.53
2023-11-29T12:10:05.190Z,100458.19
2023-11-29T12:12:31.580Z,100461.53
2023-11-29T12:14:58.089Z,100464.72
2023-11-29T12:17:34.499Z,100466.09
2023-11-29T12:20:06.184Z,100466.53
2023-11-29T12:22:34.220Z,100464.28
2023-11-29T12:25:00.912Z,100471.50
2023-11-29T12:27:28.568Z,100460.97
2023-11-29T12:29:59.489Z,100464.56
2023-11-29T12:32:29.423Z,100456.97
2023-11-29T12:34:59.728Z,100463.09
2023-11-29T12:37:27.935Z,100454.28
2023-11-29T12:39:58.397Z,100452.94
2023-11-29T12:42:25.640Z,100445.03
2023-11-29T12:44:53.168Z,100443.75
2023-11-29T12:47:23.271Z,100435.19
2023-11-29T12:49:50.632Z,100444.50
2023-11-29T12:52:17.255Z,100445.41
2023-11-29T12:54:43.850Z,100448.31
2023-11-29T12:57:10.736Z,100449.75
2023-11-29T12:59:37.281Z,100447.78
2023-11-29T13:02:04.674Z,100448.88
2023-11-29T13:04:31.678Z,100445.03
2023-11-29T13:06:58.228Z,100444.94
2023-11-29T13:09:25.514Z,100451.91
2023-11-29T13:11:52.725Z,100452.19
2023-11-29T13:14:20.697Z,100458.13
2023-11-29T13:16:47.131Z,100455.38
2023-11-29T13:19:13.513Z,100455.72
2023-11-29T13:21:39.895Z,100451.50
2023-11-29T13:24:06.805Z,100455.78
2023-11-29T13:26:33.349Z,100462.28
2023-11-29T13:28:59.822Z,100462.63
2023-11-29T13:31:26.466Z,100462.97
2023-11-29T13:33:52.945Z,100462.13
2023-11-29T13:36:19.431Z,100466.31
2023-11-29T13:38:45.900Z,100466.91
2023-11-29T13:41:12.406Z,100471.34
2023-11-29T13:43:39.162Z,100467.06
2023-11-29T13:46:05.561Z,100463.97
2023-11-29T13:48:32.122Z,100458.25
2023-11-29T13:51:00.141Z,100461.03
2023-11-29T13:53:29.346Z,100454.19
2023-11-29T13:55:56.005Z,100449.78
2023-11-29T13:58:22.576Z,100457.69
2023-11-29T14:00:49.061Z,100454.34
2023-11-29T14:03:24.430Z,100454.50
2023-11-29T14:05:54.775Z,100451.06
2023-11-29T14:08:21.299Z,100453.50
2023-11-29T14:10:47.768Z,100444.69
2023-11-29T14:13:14.223Z,100450.53
2023-11-29T14:15:41.730Z,100447.00
2023-11-29T14:18:08.503Z,100449.69
2023-11-29T14:20:35.914Z,100449.78
2023-11-29T14:23:02.438Z,100445.25
2023-11-29T14:25:28.854Z,100447.78
2023-11-29T14:27:58.166Z,100447.94
2023-11-29T14:30:25.060Z,100450.63
2023-11-29T14:32:51.865Z,100448.97
2023-11-29T14:35:18.400Z,100447.28
2023-11-29T14:37:44.909Z,100452.66
2023-11-29T14:40:12.261Z,100453.66
2023-11-29T14:42:38.903Z,100453.75
2023-11-29T14:45:06.082Z,100450.47
2023-11-29T14:47:32.706Z,100450.31
2023-11-29T14:49:59.494Z,100455.50
2023-11-29T14:52:26.032Z,100446.00
2023-11-29T14:54:52.544Z,100449.22
2023-11-29T14:57:19.858Z,100451.97
2023-11-29T14:59:47.386Z,100452.16
2023-11-29T15:02:14.183Z,100437.88
2023-11-29T15:04:40.700Z,100435.38
2023-11-29T15:07:07.889Z,100446.53
2023-11-29T15:09:34.337Z,100445.78
2023-11-29T15:12:00.859Z,100447.63
2023-11-29T15:14:28.495Z,100454.66
2023-11-29T15:16:54.923Z,100460.03
2023-11-29T15:19:21.351Z,100453.97
2023-11-29T15:21:47.750Z,100457.41
2023-11-29T15:24:14.286Z,100449.88
2023-11-29T15:26:41.114Z,100454.34
2023-11-29T15:29:07.555Z,100458.78
2023-11-29T15:31:34.126Z,100456.34
2023-11-29T15:34:00.657Z,100456.50
2023-11-29T15:36:27.247Z,100455.84
2023-11-29T15:38:53.862Z,100450.78
2023-11-29T15:41:22.020Z,100457.91
2023-11-29T15:43:49.398Z,100457.16
2023-11-29T15:46:15.927Z,100459.19
2023-11-29T15:48:42.616Z,100460.81
2023-11-29T15:51:09.665Z,100463.53
2023-11-29T15:53:37.031Z,100463.69
2023-11-29T15:56:03.924Z,100460.31
2023-11-29T15:58:30.411Z,100456.81
2023-11-29T16:00:56.909Z,100451.84
2023-11-29T16:03:24.542Z,100454.59
2023-11-29T16:05:53.350Z,100461.63
2023-11-29T16:08:19.875Z,100456.69
2023-11-29T16:10:46.300Z,100454.31
2023-11-29T16:13:12.721Z,100456.16
2023-11-29T16:15:39.212Z,100461.63
2023-11-29T16:18:05.750Z,100460.09
2023-11-29T16:20:37.008Z,100454.97
2023-11-29T16:23:04.408Z,100461.22
2023-11-29T16:25:30.880Z,100462.16
2023-11-29T16:27:57.530Z,100464.91
2023-11-29T16:30:24.916Z,100467.69
2023-11-29T16:32:52.023Z,100458.34
2023-11-29T16:35:18.634Z,100464.59
2023-11-29T16:37:45.224Z,100468.13
2023-11-29T16:40:12.679Z,100471.63
2023-11-29T16:42:39.314Z,100469.03
2023-11-29T16:45:06.294Z,100474.41
2023-11-29T16:47:32.822Z,100466.00
2023-11-29T16:49:59.566Z,100460.88
2023-11-29T16:52:26.691Z,100467.75
2023-11-29T16:54:53.078Z,100456.75
2023-11-29T16:57:19.557Z,100463.03
2023-11-29T16:59:46.032Z,100460.50
2023-11-29T17:02:12.593Z,100460.72
2023-11-29T17:04:39.083Z,100465.22
2023-11-29T17:07:05.672Z,100466.63
2023-11-29T17:09:32.201Z,100456.16
2023-11-29T17:11:58.921Z,100468.66
2023-11-29T17:14:26.852Z,100470.56
2023-11-29T17:16:53.325Z,100470.41
2023-11-29T17:19:19.726Z,100472.25
2023-11-29T17:21:46.417Z,100471.34
2023-11-29T17:24:13.009Z,100472.41
2023-11-29T17:26:41.980Z,100463.94
2023-11-29T17:29:08.966Z,100460.63
2023-11-29T17:31:35.857Z,100466.53
2023-11-29T17:34:02.443Z,100469.19
2023-11-29T17:36:28.898Z,100475.00
2023-11-29T17:38:55.383Z,100483.72
2023-11-29T17:41:21.878Z,100489.13
2023-11-29T17:43:48.287Z,100487.44
2023-11-29T17:46:14.680Z,100483.16
2023-11-29T17:48:41.278Z,100483.38
2023-11-29T17:51:08.581Z,100481.41
2023-11-29T17:53:35.109Z,100480.56
2023-11-29T17:56:01.620Z,100477.28
2023-11-29T17:58:28.251Z,100483.22
2023-11-29T18:00:54.751Z,100482.81
2023-11-29T18:03:21.283Z,100476.16
2023-11-29T18:05:47.853Z,100476.34
2023-11-29T18:08:14.949Z,100487.81
2023-11-29T18:10:56.685Z,100484.59
2023-11-29T18:13:24.740Z,100481.25
2023-11-29T18:15:51.120Z,100485.66
2023-11-29T18:18:17.908Z,100485.78
2023-11-29T18:20:45.993Z,100479.22
2023-11-29T18:23:13.383Z,100480.78
2023-11-29T18:25:48.544Z,100485.13
2023-11-29T18:28:23.077Z,100491.28
2023-11-29T18:30:49.522Z,100490.53
2023-11-29T18:33:16.057Z,100493.13
2023-11-29T18:35:43.823Z,100489.03
2023-11-29T18:38:10.288Z,100491.63
2023-11-29T18:40:36.940Z,100489.13
2023-11-29T18:43:03.965Z,100488.22
2023-11-29T18:45:30.389Z,100497.81
2023-11-29T18:47:58.293Z,100498.72
2023-11-29T18:50:25.017Z,100496.13
2023-11-29T18:52:51.553Z,100496.91
2023-11-29T18:55:19.145Z,100495.31
2023-11-29T18:57:45.576Z,100491.25
2023-11-29T19:00:12.902Z,100498.03
2023-11-29T19:02:39.869Z,100492.00
2023-11-29T19:05:06.940Z,100497.22
2023-11-29T19:07:33.665Z,100495.59
2023-11-29T19:10:00.214Z,100491.31
2023-11-29T19:12:26.653Z,100497.34
2023-11-29T19:14:53.167Z,100495.53
2023-11-29T19:17:21.072Z,100498.19
2023-11-29T19:19:47.507Z,100495.66
2023-11-29T19:22:13.974Z,100497.47
2023-11-29T19:24:40.521Z,100493.19
2023-11-29T19:27:07.286Z,100501.06
2023-11-29T19:29:34.440Z,100501.13
2023-11-29T19:32:00.855Z,100498.63
2023-11-29T19:34:27.537Z,100501.28
2023-11-29T19:36:54.143Z,100496.09
2023-11-29T19:39:20.785Z,100489.16
2023-11-29T19:41:47.439Z,100491.75
2023-11-29T19:44:13.910Z,100495.31
2023-11-29T19:46:40.724Z,100501.41
2023-11-29T19:49:07.350Z,100496.22
2023-11-29T19:51:33.792Z,100504.00
2023-11-29T19:54:00.385Z,100502.31
2023-11-29T19:56:26.978Z,100503.25
2023-11-29T19:58:53.390Z,100504.22
2023-11-29T20:01:22.542Z,100508.69
2023-11-29T20:03:49.212Z,100505.19
2023-11-29T20:06:22.051Z,100507.00
2023-11-29T20:08:55.589Z,100509.75
2023-11-29T20:11:22.683Z,100505.50
2023-11-29T20:13:49.317Z,100511.53
2023-11-29T20:16:15.877Z,100508.00
2023-11-29T20:18:42.727Z,100508.84
2023-11-29T20:21:09.493Z,100505.34
2023-11-29T20:23:37.470Z,100508.84
2023-11-29T20:26:04.101Z,100498.47
2023-11-29T20:28:30.636Z,100505.34
2023-11-29T20:30:57.322Z,100500.16
2023-11-29T20:33:23.962Z,100502.75
2023-11-29T20:35:51.878Z,100506.25
2023-11-29T20:38:19.273Z,100512.28
2023-11-29T20:40:48.005Z,100506.59
2023-11-29T20:43:18.394Z,100509.28
2023-11-29T20:45:45.363Z,100514.38
2023-11-29T20:48:12.039Z,100515.16
2023-11-29T20:50:40.045Z,100514.31
2023-11-29T20:53:14.574Z,100512.56
2023-11-29T20:55:47.118Z,100500.50
2023-11-29T20:58:14.373Z,100504.84
2023-11-29T21:00:42.748Z,100503.94
2023-11-29T21:03:09.463Z,100501.34
2023-11-29T21:05:35.983Z,100507.25
2023-11-29T21:08:02.448Z,100499.38
2023-11-29T21:10:28.909Z,100502.81
2023-11-29T21:12:58.622Z,100490.91
2023-11-29T21:15:25.528Z,100495.94
2023-11-29T21:17:53.542Z,100499.28
2023-11-29T21:20:20.150Z,100498.31
2023-11-29T21:22:46.646Z,100499.09
2023-11-29T21:25:16.622Z,100498.03
2023-11-29T21:27:43.053Z,100495.38
2023-11-29T21:30:10.121Z,100492.56
2023-11-29T21:32:36.563Z,100489.97
2023-11-29T21:35:03.122Z,100490.81
2023-11-29T21:37:29.572Z,100485.47
2023-11-29T21:39:56.007Z,100495.66
2023-11-29T21:42:22.412Z,100493.13
2023-11-29T21:44:48.932Z,100488.06
2023-11-29T21:47:15.449Z,100496.63
2023-11-29T21:49:41.986Z,100497.47
2023-11-29T21:52:08.497Z,100506.88
2023-11-29T21:54:34.927Z,100500.84
2023-11-29T21:57:01.412Z,100505.94
2023-11-29T21:59:27.922Z,100505.03
2023-11-29T22:01:54.629Z,100499.78
2023-11-29T22:04:21.605Z,100498.94
2023-11-29T22:06:53.566Z,100503.28
2023-11-29T22:09:20.034Z,100499.16
2023-11-29T22:11:46.672Z,100506.09
2023-11-29T22:14:13.245Z,100505.19
2023-11-29T22:16:40.548Z,100495.72
2023-11-29T22:19:09.599Z,100497.41
2023-11-29T22:21:36.117Z,100502.66
2023-11-29T22:24:03.346Z,100499.09
2023-11-29T22:26:32.378Z,100499.09
2023-11-29T22:29:02.290Z,100505.25
2023-11-29T22:31:28.733Z,100509.53
2023-11-29T22:33:55.453Z,100493.13
2023-11-29T22:36:22.037Z,100496.69
2023-11-29T22:38:49.428Z,100491.56
2023-11-29T22:41:23.987Z,100489.97
2023-11-29T22:43:56.933Z,100487.28
2023-11-29T22:46:26.388Z,100490.03
2023-11-29T22:48:53.050Z,100488.50
2023-11-29T22:51:22.173Z,100491.31
2023-11-29T22:53:50.366Z,100493.06
2023-11-29T22:56:17.638Z,100490.34
2023-11-29T22:58:44.932Z,100496.63
2023-11-29T23:01:14.589Z,100495.94
2023-11-29T23:03:42.736Z,100491.69
2023-11-29T23:06:11.550Z,100490.75
2023-11-29T23:08:38.207Z,100493.56
2023-11-29T23:11:05.382Z,100499.53
2023-11-29T23:13:31.858Z,100502.25
2023-11-29T23:15:58.253Z,100493.56
2023-11-29T23:18:24.876Z,100507.44
2023-11-29T23:20:51.764Z,100499.88
2023-11-29T23:23:24.026Z,100501.69
2023-11-29T23:25:53.199Z,100501.56
2023-11-29T23:28:19.751Z,100499.88
2023-11-29T23:30:46.379Z,100503.38
2023-11-29T23:33:12.881Z,100499.09
2023-11-29T23:35:39.377Z,100495.97
2023-11-29T23:38:06.824Z,100490.78
2023-11-29T23:40:33.248Z,100495.97
2023-11-29T23:42:59.868Z,100492.53
2023-11-29T23:45:32.338Z,100484.75
2023-11-29T23:47:58.918Z,100486.34
2023-11-29T23:50:25.393Z,100482.03
2023-11-29T23:52:51.871Z,100479.41
2023-11-29T23:55:18.487Z,100479.56
2023-11-29T23:57:44.981Z,100482.16
